首页
METAR-TAF:

METAR-TAF

机场 :

素叻他尼機場

素叻他尼, 泰国

纬度: 09-07N, 经度: 099-21E, 海拔: 10米

当前天气观测

该预报发布于27分钟前的13:00 UTC
风速4节,风向,在东南南转西南之间变化
温度 27°C
湿度 89%
气压 1008 hPa
能见度10公里或以上
少量云层高于2000英尺

METAR: VTSB 171300Z 18004KT 140V210 9999 FEW020 27/25 Q1008 NOSIG

时间: 20:27 (13:27 UTC)

预报

该预报发布于2小时和27分钟前的11:00 UTC
预报有效从17日的 12点(UTC)到 18日的 12点(UTC)
风速3节,风向南转西南
能见度10公里或以上
少量云层高于2000英尺
短暂存在
从 18日的 06点(UTC)到 18日的 12点(UTC)
风速15节,风向多变,有时为25节阵风
能見度: 3000
少量云层高于1600英尺, 积雨云.
散云层高于1800英尺
多云层高于10000英尺
雷暴, 雨,

TAF: VTSB 171100Z 1712/1812 20003KT 9999 FEW020 TEMPO 1806/1812 VRB15G25KT 3000 TSRA FEW016CB SCT018 BKN100

超过4000个机场的气象观测和天气预报(METAR&TAF报告)。

可查询的气象台以黄色和红色小点在地图上表示。

将鼠标移到小点上方,可查看气象台名称。

然后点击查看天气观测和预报。

如需切换地图:点击带黑十字的绿色按钮放大地图;点击带横线的绿色按钮缩小地图;或者点击绿色箭头查看邻近地区的地图。


METAR-TAF: